Time;durP1;ratioP1;P1;durP2;ratioP2;P2;SDS_P1;SDS_P2;PMS_P1;PMS_P2;Temp;Humidity;BMP_temperature;BMP_pressure;BME280_temperature;BME280_humidity;BME280_pressure;Samples;Min_cycle;Max_cycle;Signal;HPM_P1;HPM_P2
2023/02/06 00:01:17;;;;;;;19.03;14.40;;;5.60;99.90;;;;;;5084941;28;20205;-70
2023/02/06 00:03:44;;;;;;;19.97;14.27;;;5.60;99.90;;;;;;5079194;28;20225;-70
2023/02/06 00:06:11;;;;;;;18.97;14.50;;;5.50;99.90;;;;;;5073612;28;20208;-70
2023/02/06 00:08:38;;;;;;;21.43;15.90;;;5.60;99.90;;;;;;5074041;28;20217;-70
2023/02/06 00:11:06;;;;;;;21.03;14.73;;;5.60;99.90;;;;;;5074698;28;20204;-69
2023/02/06 00:13:33;;;;;;;22.87;15.03;;;5.50;99.90;;;;;;5073794;28;20256;-69
2023/02/06 00:16:01;;;;;;;20.23;15.03;;;5.40;99.90;;;;;;5072576;28;20228;-68
2023/02/06 00:18:28;;;;;;;21.77;14.40;;;5.40;99.90;;;;;;5073651;28;20583;-69
2023/02/06 00:20:55;;;;;;;22.07;15.50;;;5.50;99.90;;;;;;5073508;28;20641;-68
2023/02/06 00:23:22;;;;;;;21.37;16.20;;;5.40;99.90;;;;;;5073459;28;20228;-69
2023/02/06 00:25:48;;;;;;;20.20;14.50;;;5.40;99.90;;;;;;5073469;28;20652;-69
2023/02/06 00:28:15;;;;;;;19.87;14.30;;;5.30;99.90;;;;;;5073961;28;20220;-68
2023/02/06 00:30:45;;;;;;;22.17;16.67;;;5.20;99.90;;;;;;5073944;28;20208;-69
2023/02/06 00:33:13;;;;;;;22.87;15.83;;;5.20;99.90;;;;;;5073029;28;20256;-69
2023/02/06 00:35:40;;;;;;;21.93;15.27;;;5.20;99.90;;;;;;5073577;28;20404;-69
2023/02/06 00:38:09;;;;;;;20.73;14.63;;;5.20;99.90;;;;;;5074145;28;20584;-70
2023/02/06 00:40:35;;;;;;;21.30;14.53;;;5.30;99.90;;;;;;5073302;28;20235;-70
2023/02/06 00:43:02;;;;;;;23.40;15.97;;;5.30;99.90;;;;;;5073628;28;20225;-69
2023/02/06 00:45:29;;;;;;;21.50;14.90;;;5.40;99.90;;;;;;5073698;28;20201;-70
2023/02/06 00:47:56;;;;;;;21.30;14.30;;;5.40;99.90;;;;;;5073685;28;20228;-70
2023/02/06 00:50:24;;;;;;;21.20;15.20;;;5.40;99.90;;;;;;5073343;28;20232;-70
2023/02/06 00:52:51;;;;;;;20.00;15.37;;;5.40;99.90;;;;;;5073099;28;20224;-69
2023/02/06 00:55:18;;;;;;;20.67;15.33;;;5.50;99.90;;;;;;5073036;28;20216;-70
2023/02/06 00:57:44;;;;;;;22.77;16.23;;;5.50;99.90;;;;;;5074080;28;20209;-69
2023/02/06 01:00:12;;;;;;;22.80;16.27;;;5.60;99.90;;;;;;5075013;28;20286;-69
2023/02/06 01:02:39;;;;;;;24.73;16.47;;;5.60;99.90;;;;;;5075504;28;20212;-70
2023/02/06 01:05:06;;;;;;;21.23;16.63;;;5.60;99.90;;;;;;5075743;28;20209;-69
2023/02/06 01:07:37;;;;;;;23.80;16.93;;;5.60;99.90;;;;;;5076188;28;20228;-69
2023/02/06 01:10:04;;;;;;;21.97;16.80;;;5.60;99.90;;;;;;5077320;28;20231;-69
2023/02/06 01:12:31;;;;;;;22.37;15.77;;;5.70;99.90;;;;;;5074588;28;20227;-69
2023/02/06 01:14:58;;;;;;;30.33;17.27;;;5.80;99.90;;;;;;5072607;28;20208;-69
2023/02/06 01:17:24;;;;;;;26.13;16.43;;;5.90;99.90;;;;;;5071752;28;20211;-69
2023/02/06 01:19:51;;;;;;;23.23;17.33;;;5.90;99.90;;;;;;5072747;28;20205;-69
2023/02/06 01:22:18;;;;;;;22.50;15.67;;;5.70;99.90;;;;;;5072356;28;20204;-68
2023/02/06 01:24:46;;;;;;;21.07;14.87;;;5.70;99.90;;;;;;5072607;28;20588;-69
2023/02/06 01:27:13;;;;;;;20.90;15.37;;;5.50;99.90;;;;;;5073184;28;20212;-69
2023/02/06 01:29:40;;;;;;;22.10;15.17;;;5.30;99.90;;;;;;5076962;28;20297;-69
2023/02/06 01:32:07;;;;;;;24.33;16.30;;;5.10;99.90;;;;;;5076643;28;20295;-69
2023/02/06 01:34:33;;;;;;;20.97;15.17;;;5.10;99.90;;;;;;5076742;28;20720;-69
2023/02/06 01:37:00;;;;;;;21.77;15.00;;;5.10;99.90;;;;;;5076349;28;20209;-69
2023/02/06 01:39:27;;;;;;;22.20;15.43;;;5.10;99.90;;;;;;5076676;28;20569;-68
2023/02/06 01:41:55;;;;;;;24.37;16.43;;;5.00;99.90;;;;;;5076917;28;20680;-69
2023/02/06 01:44:25;;;;;;;23.43;15.60;;;5.10;99.90;;;;;;5075919;28;20248;-69
2023/02/06 01:46:53;;;;;;;21.83;16.37;;;5.30;99.90;;;;;;5075769;28;20209;-68
2023/02/06 01:49:25;;;;;;;23.53;15.43;;;5.40;99.90;;;;;;5076157;28;20256;-67
2023/02/06 01:51:55;;;;;;;20.93;14.83;;;5.40;99.90;;;;;;5077017;28;20209;-68
2023/02/06 01:54:23;;;;;;;20.77;15.30;;;5.40;99.90;;;;;;5083970;28;20678;-68
2023/02/06 01:56:52;;;;;;;19.80;15.10;;;5.50;99.90;;;;;;5084157;28;20211;-68
2023/02/06 01:59:21;;;;;;;19.20;13.87;;;5.30;99.90;;;;;;5092320;28;20235;-68
2023/02/06 02:01:48;;;;;;;18.83;13.83;;;5.20;99.90;;;;;;5088162;28;20215;-70
2023/02/06 02:04:18;;;;;;;18.13;13.83;;;4.70;99.90;;;;;;5080292;28;20237;-69
2023/02/06 02:06:50;;;;;;;17.67;13.63;;;5.00;99.90;;;;;;5077924;28;20220;-70
2023/02/06 02:09:18;;;;;;;18.90;14.17;;;4.80;99.90;;;;;;5078752;28;20228;-70
2023/02/06 02:11:45;;;;;;;20.50;14.27;;;4.80;99.90;;;;;;5076223;28;20212;-69
2023/02/06 02:14:15;;;;;;;17.97;14.40;;;4.70;99.90;;;;;;5075664;28;20231;-69
2023/02/06 02:16:51;;;;;;;19.70;13.20;;;4.80;99.90;;;;;;5075178;28;20209;-68
2023/02/06 02:19:51;;;;;;;18.83;14.23;;;5.00;99.90;;;;;;5076017;28;20201;-69
2023/02/06 02:22:39;;;;;;;17.30;12.80;;;5.10;99.90;;;;;;5025554;28;20201;-68
2023/02/06 02:25:25;;;;;;;19.23;14.00;;;5.00;99.90;;;;;;5075675;28;20216;-69
2023/02/06 02:28:19;;;;;;;19.43;13.70;;;5.10;99.90;;;;;;5075050;28;20208;-69
2023/02/06 02:31:19;;;;;;;17.20;13.17;;;5.00;99.90;;;;;;5076059;28;20209;-69
2023/02/06 02:34:27;;;;;;;17.50;13.67;;;5.00;99.90;;;;;;5076006;28;20261;-70
2023/02/06 02:37:03;;;;;;;19.60;13.77;;;5.00;99.90;;;;;;5076073;28;20190;-68
2023/02/06 02:39:37;;;;;;;22.47;14.60;;;4.80;99.90;;;;;;5075087;28;20205;-70
2023/02/06 02:42:12;;;;;;;21.93;15.70;;;4.80;99.90;;;;;;5076026;28;20204;-71
2023/02/06 02:44:47;;;;;;;20.43;14.50;;;4.90;99.90;;;;;;5075529;28;20224;-71
2023/02/06 02:47:16;;;;;;;20.97;14.53;;;5.10;99.90;;;;;;5075020;28;20558;-70
2023/02/06 02:49:45;;;;;;;24.33;15.77;;;5.30;99.90;;;;;;5075084;28;20225;-71
2023/02/06 02:52:14;;;;;;;23.37;14.53;;;5.30;99.90;;;;;;5076239;28;20216;-71
2023/02/06 02:54:41;;;;;;;21.23;15.37;;;5.10;99.90;;;;;;5076233;28;20692;-69
2023/02/06 02:57:13;;;;;;;19.77;14.73;;;5.20;99.90;;;;;;5079173;28;20212;-69
2023/02/06 02:59:44;;;;;;;21.23;15.90;;;5.30;99.90;;;;;;5090566;28;20201;-69
2023/02/06 03:02:15;;;;;;;22.53;15.93;;;5.10;99.90;;;;;;5088855;28;20598;-70
2023/02/06 03:04:47;;;;;;;23.03;15.90;;;5.10;99.90;;;;;;5085753;28;20316;-69
2023/02/06 03:07:24;;;;;;;20.87;15.17;;;5.20;99.90;;;;;;5084361;28;20205;-70
2023/02/06 03:09:59;;;;;;;23.30;16.37;;;5.30;99.90;;;;;;5081972;28;20224;-70
2023/02/06 03:12:37;;;;;;;22.30;16.53;;;5.30;99.90;;;;;;5079776;28;20646;-70
2023/02/06 03:15:09;;;;;;;20.43;15.07;;;5.20;99.90;;;;;;5074853;28;20205;-69
2023/02/06 03:17:39;;;;;;;23.53;16.53;;;5.10;99.90;;;;;;5076174;28;20295;-70
2023/02/06 03:20:08;;;;;;;27.80;16.53;;;5.10;99.90;;;;;;5075198;28;20205;-69
2023/02/06 03:22:38;;;;;;;21.83;16.07;;;5.10;99.90;;;;;;5073605;28;20235;-69
2023/02/06 03:25:10;;;;;;;22.20;15.90;;;5.00;99.90;;;;;;5074091;28;20220;-69
2023/02/06 03:27:39;;;;;;;23.33;16.33;;;4.90;99.90;;;;;;5073995;28;20439;-70
2023/02/06 03:30:07;;;;;;;22.37;16.67;;;4.90;99.90;;;;;;5073953;28;20221;-70
2023/02/06 03:32:41;;;;;;;21.93;16.37;;;5.00;99.90;;;;;;5073783;28;20216;-69
2023/02/06 03:35:12;;;;;;;21.07;16.70;;;5.20;99.90;;;;;;5074537;28;20612;-70
2023/02/06 03:37:40;;;;;;;21.63;16.40;;;5.30;99.90;;;;;;5073488;28;20208;-70
2023/02/06 03:40:09;;;;;;;23.03;17.40;;;5.30;99.90;;;;;;5073717;28;20209;-69
2023/02/06 03:42:40;;;;;;;22.47;17.10;;;5.40;99.90;;;;;;5073309;28;20223;-70
2023/02/06 03:45:13;;;;;;;23.33;16.17;;;5.50;99.90;;;;;;5073665;28;20211;-69
2023/02/06 03:47:42;;;;;;;21.90;16.03;;;5.50;99.90;;;;;;5073195;28;20205;-69
2023/02/06 03:50:10;;;;;;;21.70;17.07;;;5.40;99.90;;;;;;5073472;28;20247;-70
2023/02/06 03:52:43;;;;;;;20.93;17.03;;;5.40;99.90;;;;;;5072624;28;20661;-70
2023/02/06 03:55:14;;;;;;;23.57;16.37;;;5.40;99.90;;;;;;5072787;28;20205;-70
2023/02/06 03:57:44;;;;;;;21.73;16.77;;;5.20;99.90;;;;;;5073430;28;20201;-68
2023/02/06 04:00:12;;;;;;;21.73;16.53;;;5.10;99.90;;;;;;5073626;28;20201;-69
2023/02/06 04:02:39;;;;;;;21.57;16.27;;;5.00;99.90;;;;;;5075177;28;20205;-69
2023/02/06 04:05:07;;;;;;;21.13;16.33;;;5.00;99.90;;;;;;5074325;28;20219;-70
2023/02/06 04:07:36;;;;;;;22.83;17.57;;;4.80;99.90;;;;;;5073348;28;20215;-70
2023/02/06 04:10:04;;;;;;;21.70;16.60;;;4.90;99.90;;;;;;5073629;28;20278;-69
2023/02/06 04:12:31;;;;;;;22.50;16.57;;;4.80;99.90;;;;;;5074183;28;20211;-70
2023/02/06 04:15:00;;;;;;;32.90;24.67;;;4.80;99.90;;;;;;5075511;28;20204;-70
2023/02/06 04:17:27;;;;;;;20.13;16.47;;;4.80;99.90;;;;;;5074525;28;20213;-70
2023/02/06 04:19:53;;;;;;;18.53;15.13;;;4.90;99.90;;;;;;5074931;28;20566;-70
2023/02/06 04:22:20;;;;;;;20.93;16.20;;;4.80;99.90;;;;;;5083165;28;20212;-69
2023/02/06 04:24:47;;;;;;;18.13;15.17;;;4.80;99.90;;;;;;5092129;28;20225;-69
2023/02/06 04:27:15;;;;;;;20.83;15.90;;;4.70;99.90;;;;;;5089413;28;20204;-67
2023/02/06 04:29:42;;;;;;;18.73;14.87;;;4.70;99.90;;;;;;5091058;28;20234;-68
2023/02/06 04:32:09;;;;;;;18.57;15.30;;;4.60;99.90;;;;;;5091413;28;20208;-69
2023/02/06 04:34:37;;;;;;;20.03;15.67;;;4.50;99.90;;;;;;5090351;28;20288;-69
2023/02/06 04:37:05;;;;;;;18.00;15.77;;;4.40;99.90;;;;;;5084179;28;20205;-69
2023/02/06 04:39:32;;;;;;;19.80;15.00;;;4.40;99.90;;;;;;5073834;28;20579;-68
2023/02/06 04:42:01;;;;;;;19.83;15.67;;;4.30;99.90;;;;;;5073091;28;20209;-68
2023/02/06 04:44:29;;;;;;;19.77;15.30;;;4.40;99.90;;;;;;5073483;28;20251;-70
2023/02/06 04:46:56;;;;;;;18.50;16.47;;;4.40;99.90;;;;;;5072737;28;20209;-70
2023/02/06 04:49:23;;;;;;;19.73;15.30;;;4.40;99.90;;;;;;5073518;28;20254;-70
2023/02/06 04:51:50;;;;;;;18.63;15.13;;;4.30;99.90;;;;;;5073144;28;20258;-69
2023/02/06 04:54:17;;;;;;;20.20;16.07;;;4.30;99.90;;;;;;5073278;28;20232;-69
2023/02/06 04:56:44;;;;;;;20.97;16.97;;;4.30;99.90;;;;;;5073245;28;20201;-69
2023/02/06 04:59:11;;;;;;;19.60;15.97;;;4.30;99.90;;;;;;5073244;28;20209;-70
2023/02/06 05:01:39;;;;;;;20.40;15.73;;;4.20;99.90;;;;;;5073832;28;20204;-70
2023/02/06 05:04:06;;;;;;;21.37;16.20;;;4.30;99.90;;;;;;5077892;28;20221;-70
2023/02/06 05:06:33;;;;;;;19.73;16.50;;;4.30;99.90;;;;;;5078239;28;20327;-71
2023/02/06 05:09:00;;;;;;;20.63;16.80;;;4.20;99.90;;;;;;5082215;28;20204;-70
2023/02/06 05:11:27;;;;;;;19.93;16.63;;;4.10;99.90;;;;;;5082485;28;20225;-69
2023/02/06 05:13:54;;;;;;;19.13;15.83;;;4.10;99.90;;;;;;5082652;28;20224;-71
2023/02/06 05:16:21;;;;;;;21.53;16.30;;;4.10;99.90;;;;;;5081819;28;20673;-70
2023/02/06 05:18:53;;;;;;;20.20;16.33;;;4.20;99.90;;;;;;5079696;28;20216;-70
2023/02/06 05:21:20;;;;;;;19.07;16.37;;;4.20;99.90;;;;;;5080814;28;20205;-71
2023/02/06 05:23:47;;;;;;;22.40;17.23;;;4.20;99.90;;;;;;5081481;28;20231;-70
2023/02/06 05:26:13;;;;;;;22.50;16.90;;;4.20;99.90;;;;;;5085999;28;20235;-70
2023/02/06 05:28:40;;;;;;;20.13;16.63;;;4.20;99.90;;;;;;5090525;28;20316;-71
2023/02/06 05:31:08;;;;;;;23.83;17.67;;;4.30;99.90;;;;;;5090059;28;20254;-70
2023/02/06 05:33:34;;;;;;;19.77;17.23;;;4.30;99.90;;;;;;5089412;28;20267;-70
2023/02/06 05:36:04;;;;;;;21.70;16.80;;;4.30;99.90;;;;;;5089010;28;20205;-70
2023/02/06 05:38:32;;;;;;;20.13;16.63;;;4.30;99.90;;;;;;5085448;28;20212;-70
2023/02/06 05:40:58;;;;;;;21.27;17.20;;;4.20;99.90;;;;;;5077850;28;20204;-70
2023/02/06 05:43:25;;;;;;;20.97;17.27;;;4.20;99.90;;;;;;5077773;28;20232;-71
2023/02/06 05:45:52;;;;;;;20.60;16.87;;;4.30;99.90;;;;;;5078680;28;20205;-70
2023/02/06 05:48:19;;;;;;;19.97;15.83;;;4.20;99.90;;;;;;5078436;28;20213;-72
2023/02/06 05:50:48;;;;;;;19.97;17.20;;;4.20;99.90;;;;;;5079545;28;20220;-72
2023/02/06 05:53:17;;;;;;;22.40;16.37;;;4.10;99.90;;;;;;5078577;28;20225;-71
2023/02/06 05:55:44;;;;;;;19.17;15.63;;;4.10;99.90;;;;;;5079839;28;20679;-70
2023/02/06 05:58:11;;;;;;;22.23;16.80;;;4.10;99.90;;;;;;5078666;28;20211;-70
2023/02/06 06:00:37;;;;;;;19.27;16.33;;;4.00;99.90;;;;;;5087717;28;20200;-72
2023/02/06 06:03:05;;;;;;;21.67;17.20;;;4.00;99.90;;;;;;5089040;28;20735;-71
2023/02/06 06:05:31;;;;;;;19.30;15.57;;;4.10;99.90;;;;;;5088220;28;20209;-70
2023/02/06 06:07:58;;;;;;;20.40;16.13;;;4.10;99.90;;;;;;5088529;28;20216;-71
2023/02/06 06:10:26;;;;;;;20.13;15.57;;;4.10;99.90;;;;;;5087157;28;20286;-71
2023/02/06 06:12:53;;;;;;;19.57;15.70;;;4.10;99.90;;;;;;5086013;28;20224;-71
2023/02/06 06:15:20;;;;;;;19.00;16.33;;;4.10;99.90;;;;;;5080086;28;20580;-70
2023/02/06 06:17:46;;;;;;;20.07;16.83;;;4.10;99.90;;;;;;5080608;28;20220;-70
2023/02/06 06:20:13;;;;;;;20.13;16.07;;;4.10;99.90;;;;;;5089269;28;20564;-69
2023/02/06 06:22:40;;;;;;;20.03;15.30;;;4.20;99.90;;;;;;5080498;28;20619;-69
2023/02/06 06:25:07;;;;;;;19.93;16.13;;;4.20;99.90;;;;;;5083413;28;20676;-70
2023/02/06 06:27:35;;;;;;;20.53;16.47;;;4.10;99.90;;;;;;5080900;28;20212;-70
2023/02/06 06:30:02;;;;;;;18.60;15.47;;;4.20;99.90;;;;;;5077879;28;20645;-70
2023/02/06 06:32:29;;;;;;;18.53;15.60;;;4.40;99.90;;;;;;5079740;28;20213;-71
2023/02/06 06:34:56;;;;;;;21.53;16.73;;;4.50;99.90;;;;;;5079319;28;20301;-71
2023/02/06 06:37:23;;;;;;;21.63;15.67;;;4.50;99.90;;;;;;5077931;28;20568;-70
2023/02/06 06:39:50;;;;;;;20.67;16.30;;;4.50;99.90;;;;;;5077328;28;20665;-71
2023/02/06 06:42:17;;;;;;;21.20;16.17;;;4.40;99.90;;;;;;5076502;28;20287;-70
2023/02/06 06:44:45;;;;;;;21.00;17.10;;;4.40;99.90;;;;;;5076926;28;20225;-71
2023/02/06 06:47:11;;;;;;;20.77;15.70;;;4.50;99.90;;;;;;5076340;28;20208;-70
2023/02/06 06:49:38;;;;;;;19.53;15.27;;;4.60;99.90;;;;;;5076919;28;20578;-70
2023/02/06 06:52:05;;;;;;;20.17;14.67;;;4.50;99.90;;;;;;5076218;28;20228;-70
2023/02/06 06:54:32;;;;;;;20.37;14.60;;;5.10;99.90;;;;;;5064258;28;20232;-65
2023/02/06 06:56:59;;;;;;;19.27;15.03;;;4.50;99.90;;;;;;5067152;28;20204;-65
2023/02/06 06:59:25;;;;;;;18.73;13.83;;;4.50;99.90;;;;;;5075396;28;20204;-65
2023/02/06 07:01:53;;;;;;;20.67;14.73;;;4.50;99.90;;;;;;5076884;28;20216;-64
2023/02/06 07:04:20;;;;;;;19.53;14.00;;;4.60;99.90;;;;;;5075569;28;20229;-64
2023/02/06 07:06:47;;;;;;;18.47;14.23;;;4.60;99.90;;;;;;5077573;28;20648;-64
2023/02/06 07:09:14;;;;;;;13.83;10.90;;;4.70;99.90;;;;;;5075696;28;20205;-67
2023/02/06 07:11:40;;;;;;;13.33;11.03;;;4.70;99.90;;;;;;5074491;28;20229;-65
2023/02/06 07:14:07;;;;;;;17.33;11.17;;;4.70;99.90;;;;;;5075151;28;20225;-66
2023/02/06 07:16:34;;;;;;;16.60;11.10;;;4.70;99.90;;;;;;5074381;28;20228;-65
2023/02/06 07:19:02;;;;;;;14.23;10.87;;;4.70;99.90;;;;;;5075544;28;20209;-65
2023/02/06 07:21:29;;;;;;;11.97;9.70;;;4.70;99.90;;;;;;5074276;28;20208;-66
2023/02/06 07:23:56;;;;;;;11.57;9.10;;;4.70;99.90;;;;;;5073870;28;20232;-65
2023/02/06 07:26:22;;;;;;;12.03;9.57;;;4.70;99.90;;;;;;5077297;28;20204;-65
2023/02/06 07:28:51;;;;;;;12.17;8.63;;;4.80;99.90;;;;;;5074928;28;20212;-65
2023/02/06 07:31:18;;;;;;;11.40;7.90;;;4.80;99.90;;;;;;5074614;28;20274;-65
2023/02/06 07:33:44;;;;;;;10.37;7.90;;;4.70;99.90;;;;;;5073681;28;20247;-65
2023/02/06 07:36:14;;;;;;;9.40;7.90;;;4.70;99.90;;;;;;5073787;28;20201;-64
2023/02/06 07:38:41;;;;;;;9.97;7.53;;;4.80;99.90;;;;;;5073683;28;20205;-65
2023/02/06 07:41:08;;;;;;;10.77;7.73;;;4.80;99.90;;;;;;5073674;28;20258;-65
2023/02/06 07:43:34;;;;;;;9.97;7.37;;;4.80;99.90;;;;;;5074704;28;20664;-66
2023/02/06 07:46:03;;;;;;;9.53;7.67;;;4.80;99.90;;;;;;5074399;28;20205;-65
2023/02/06 07:48:31;;;;;;;12.07;8.07;;;4.80;99.90;;;;;;5074804;28;20205;-67
2023/02/06 07:51:03;;;;;;;9.57;7.70;;;4.90;99.90;;;;;;5073676;28;20748;-65
2023/02/06 07:53:31;;;;;;;10.17;7.50;;;5.10;99.90;;;;;;5075580;28;20233;-64
2023/02/06 07:55:57;;;;;;;9.87;7.77;;;5.20;99.90;;;;;;5074974;28;20213;-65
2023/02/06 07:58:24;;;;;;;9.20;7.17;;;5.20;99.90;;;;;;5073305;28;20262;-65
2023/02/06 08:00:52;;;;;;;14.40;6.97;;;5.20;99.90;;;;;;5073405;28;20205;-67
2023/02/06 08:03:19;;;;;;;9.87;7.00;;;5.20;99.90;;;;;;5074154;28;20217;-67
2023/02/06 08:05:46;;;;;;;9.93;6.90;;;5.20;99.90;;;;;;5073870;28;20244;-67
2023/02/06 08:08:13;;;;;;;12.50;8.20;;;5.10;99.90;;;;;;5074017;28;20214;-65
2023/02/06 08:10:41;;;;;;;9.20;6.77;;;5.20;99.90;;;;;;5072067;28;20741;-64
2023/02/06 08:13:08;;;;;;;12.13;7.37;;;5.20;99.90;;;;;;5073334;28;20282;-63
2023/02/06 08:15:34;;;;;;;9.90;6.57;;;5.20;99.90;;;;;;5073393;28;20214;-65
2023/02/06 08:18:01;;;;;;;11.37;7.40;;;5.20;99.90;;;;;;5072855;28;20220;-65
2023/02/06 08:20:28;;;;;;;9.60;7.03;;;5.10;99.90;;;;;;5073253;28;20208;-65
2023/02/06 08:22:55;;;;;;;9.27;7.40;;;5.10;99.90;;;;;;5073671;28;20231;-64
2023/02/06 08:25:21;;;;;;;11.27;7.60;;;5.00;99.90;;;;;;5072454;28;20251;-65
2023/02/06 08:27:53;;;;;;;9.80;6.73;;;5.00;99.90;;;;;;5073109;28;20215;-65
2023/02/06 08:30:20;;;;;;;12.00;6.90;;;5.00;99.90;;;;;;5072746;28;20232;-65
2023/02/06 08:35:14;;;;;;;8.00;6.73;;;4.80;99.90;;;;;;5086551;22;20325;-57
2023/02/06 08:37:41;;;;;;;10.30;6.77;;;4.70;99.90;;;;;;5064953;28;20635;-59
2023/02/06 08:40:09;;;;;;;8.47;7.53;;;4.80;99.90;;;;;;5069710;28;20205;-59
2023/02/06 08:42:35;;;;;;;10.77;7.20;;;4.60;99.90;;;;;;5070161;28;20201;-57
2023/02/06 08:45:04;;;;;;;10.47;7.57;;;4.60;99.90;;;;;;5069991;28;20252;-57
2023/02/06 08:47:31;;;;;;;9.47;7.03;;;4.70;99.90;;;;;;5069762;28;20233;-58
2023/02/06 08:49:57;;;;;;;8.97;6.80;;;4.70;99.90;;;;;;5069750;28;20208;-58
2023/02/06 08:52:24;;;;;;;10.63;6.33;;;4.70;99.90;;;;;;5069409;28;20593;-57
2023/02/06 08:54:51;;;;;;;10.67;6.53;;;4.80;99.90;;;;;;5069692;28;20597;-58
2023/02/06 08:57:19;;;;;;;9.60;6.73;;;4.80;99.90;;;;;;5069729;28;20205;-57
2023/02/06 08:59:45;;;;;;;9.83;7.43;;;4.80;99.90;;;;;;5070138;28;20212;-59
2023/02/06 09:02:13;;;;;;;11.37;7.33;;;4.80;99.90;;;;;;5069885;28;20204;-57
2023/02/06 09:04:41;;;;;;;9.13;6.93;;;4.80;99.90;;;;;;5069550;28;20278;-57
2023/02/06 09:07:08;;;;;;;9.63;7.03;;;4.80;99.90;;;;;;5068762;28;20201;-58
2023/02/06 09:09:35;;;;;;;9.40;6.60;;;4.90;99.90;;;;;;5069973;28;20201;-58
2023/02/06 09:12:02;;;;;;;9.43;5.93;;;4.90;99.90;;;;;;5070000;28;20297;-57
2023/02/06 09:14:30;;;;;;;9.30;6.43;;;4.80;99.90;;;;;;5069478;28;20793;-58
2023/02/06 09:16:57;;;;;;;7.70;6.13;;;4.70;99.90;;;;;;5069780;28;20258;-57
2023/02/06 09:19:25;;;;;;;8.83;6.77;;;4.70;99.90;;;;;;5069447;28;20213;-57
2023/02/06 09:21:52;;;;;;;9.73;6.77;;;4.80;99.90;;;;;;5070014;28;20292;-58
2023/02/06 09:24:19;;;;;;;7.87;6.57;;;4.90;99.90;;;;;;5069793;28;20232;-58
2023/02/06 09:26:46;;;;;;;8.90;7.10;;;5.00;99.90;;;;;;5069397;28;20672;-59
2023/02/06 09:29:13;;;;;;;9.77;7.03;;;5.20;99.90;;;;;;5070022;28;20209;-63
2023/02/06 09:31:42;;;;;;;12.43;7.17;;;5.40;99.90;;;;;;5070595;28;20231;-56
2023/02/06 09:34:10;;;;;;;7.40;5.70;;;5.50;99.90;;;;;;5070402;28;20232;-57
2023/02/06 09:36:38;;;;;;;11.40;6.77;;;5.60;99.90;;;;;;5070338;28;20262;-57
2023/02/06 09:39:07;;;;;;;8.83;6.77;;;5.60;99.90;;;;;;5070905;28;20209;-57
2023/02/06 09:41:38;;;;;;;9.87;6.93;;;5.70;99.90;;;;;;5071283;28;20209;-56
2023/02/06 09:44:12;;;;;;;8.30;5.67;;;5.70;99.90;;;;;;5071024;28;20248;-57
2023/02/06 09:46:48;;;;;;;8.90;5.80;;;5.60;99.90;;;;;;5070662;28;20208;-57
2023/02/06 09:49:22;;;;;;;9.07;6.80;;;5.60;99.90;;;;;;5070987;28;20204;-58
2023/02/06 09:52:08;;;;;;;10.97;5.70;;;5.70;99.90;;;;;;5073798;28;20646;-57
2023/02/06 09:54:44;;;;;;;8.37;5.73;;;5.80;99.90;;;;;;5073791;28;20233;-58
2023/02/06 09:57:17;;;;;;;9.50;6.27;;;5.90;99.90;;;;;;5073915;28;20212;-57
2023/02/06 09:59:48;;;;;;;7.50;5.00;;;6.00;99.90;;;;;;5073666;28;20204;-58
2023/02/06 10:02:30;;;;;;;7.70;5.50;;;6.10;99.90;;;;;;5073613;28;20895;-58
2023/02/06 10:05:04;;;;;;;8.20;5.63;;;6.20;99.90;;;;;;5073689;28;20229;-58
2023/02/06 10:07:47;;;;;;;6.13;5.00;;;6.30;99.90;;;;;;5073122;28;20292;-58
2023/02/06 10:10:20;;;;;;;6.83;5.23;;;6.40;99.90;;;;;;5073627;28;20586;-57
2023/02/06 10:12:56;;;;;;;9.33;5.97;;;6.40;99.90;;;;;;5073373;28;20220;-57
2023/02/06 10:15:33;;;;;;;9.97;5.80;;;6.40;99.90;;;;;;5073729;28;20200;-57
2023/02/06 10:18:05;;;;;;;8.77;7.30;;;6.50;99.90;;;;;;5073162;28;20311;-62
2023/02/06 10:20:35;;;;;;;7.37;6.37;;;6.50;99.90;;;;;;5073647;28;20224;-58
2023/02/06 10:23:11;;;;;;;9.47;6.47;;;6.70;99.90;;;;;;5073369;28;20271;-58
2023/02/06 10:25:43;;;;;;;10.00;6.53;;;6.90;99.90;;;;;;5073587;28;20226;-60
2023/02/06 10:28:23;;;;;;;6.77;5.63;;;6.90;99.90;;;;;;5073126;28;20272;-56
2023/02/06 10:31:08;;;;;;;8.90;6.15;;;6.80;99.90;;;;;;5070793;28;20775;-54
2023/02/06 10:33:43;;;;;;;7.43;5.57;;;6.80;99.90;;;;;;5078275;28;20492;-55
2023/02/06 10:36:26;;;;;;;6.83;5.83;;;6.80;99.90;;;;;;5092584;28;20212;-55
2023/02/06 10:39:11;;;;;;;13.40;7.40;;;6.90;99.90;;;;;;5092534;28;20289;-53
2023/02/06 10:41:45;;;;;;;24.83;14.87;;;7.00;99.90;;;;;;5091937;28;20208;-60
2023/02/06 10:44:22;;;;;;;6.17;5.40;;;6.90;99.90;;;;;;5092171;28;20220;-62
2023/02/06 10:46:51;;;;;;;7.00;5.20;;;7.10;99.90;;;;;;5091457;28;20329;-59
2023/02/06 10:49:31;;;;;;;7.40;5.33;;;7.30;99.90;;;;;;5092024;28;20208;-57
2023/02/06 10:52:00;;;;;;;8.27;5.37;;;7.40;99.90;;;;;;5094380;28;20235;-55
2023/02/06 10:54:33;;;;;;;7.00;5.20;;;7.50;99.90;;;;;;5094206;28;20242;-56
2023/02/06 10:57:00;;;;;;;7.20;5.40;;;7.50;99.90;;;;;;5093083;28;20210;-56
2023/02/06 10:59:31;;;;;;;8.50;5.60;;;7.70;99.90;;;;;;5091435;28;20200;-57
2023/02/06 11:02:16;;;;;;;11.53;5.27;;;7.70;99.90;;;;;;5091186;28;20671;-56
2023/02/06 11:04:47;;;;;;;8.77;5.37;;;7.80;99.90;;;;;;5091423;28;20224;-57
2023/02/06 11:07:19;;;;;;;7.37;5.23;;;7.90;99.90;;;;;;5091352;28;20215;-56
2023/02/06 11:09:47;;;;;;;6.73;4.87;;;7.90;99.90;;;;;;5091199;28;20200;-58
2023/02/06 11:12:27;;;;;;;6.50;4.37;;;7.90;99.90;;;;;;5091570;28;20276;-58
2023/02/06 11:14:55;;;;;;;6.93;4.90;;;7.70;99.90;;;;;;5091550;28;20234;-56
2023/02/06 11:17:27;;;;;;;6.70;4.70;;;7.50;99.90;;;;;;5090757;28;20200;-57
2023/02/06 11:19:58;;;;;;;7.67;4.27;;;7.50;99.90;;;;;;5091523;28;20196;-57
2023/02/06 11:22:30;;;;;;;6.57;4.50;;;7.40;99.90;;;;;;5091193;28;20575;-57
2023/02/06 11:25:03;;;;;;;7.30;4.77;;;7.50;99.90;;;;;;5091343;28;20719;-59
2023/02/06 11:27:33;;;;;;;8.37;5.13;;;7.50;99.90;;;;;;5091134;28;20204;-58
2023/02/06 11:30:07;;;;;;;7.10;4.90;;;7.60;99.90;;;;;;5091271;28;20201;-59
2023/02/06 11:32:36;;;;;;;7.60;4.70;;;7.70;99.90;;;;;;5090271;28;20329;-59
2023/02/06 11:35:07;;;;;;;6.57;4.90;;;7.70;99.90;;;;;;5090237;28;20236;-58
2023/02/06 11:37:36;;;;;;;7.83;5.40;;;7.70;99.90;;;;;;5090698;28;20208;-59
2023/02/06 11:40:24;;;;;;;7.60;5.13;;;7.90;99.90;;;;;;5090918;28;20212;-59
2023/02/06 11:42:52;;;;;;;8.67;5.70;;;7.90;99.90;;;;;;5090923;28;20204;-57
2023/02/06 11:45:25;;;;;;;7.80;5.50;;;7.80;99.90;;;;;;5090369;28;20295;-59
2023/02/06 11:47:52;;;;;;;8.20;5.17;;;7.60;99.90;;;;;;5089920;28;20737;-58
2023/02/06 11:50:25;;;;;;;7.67;5.00;;;7.30;99.90;;;;;;5091008;28;20277;-58
2023/02/06 11:52:58;;;;;;;6.47;5.00;;;7.20;99.90;;;;;;5090380;28;20676;-58
2023/02/06 11:55:29;;;;;;;6.33;5.00;;;7.20;99.90;;;;;;5091464;28;20212;-59
2023/02/06 11:58:07;;;;;;;5.97;4.90;;;7.20;99.90;;;;;;5091180;28;20212;-57
2023/02/06 12:00:36;;;;;;;5.33;4.67;;;7.20;99.90;;;;;;5091582;28;20570;-57
2023/02/06 12:03:04;;;;;;;6.97;4.00;;;7.10;99.90;;;;;;5091323;28;20311;-55
2023/02/06 12:05:37;;;;;;;5.67;4.30;;;6.90;99.90;;;;;;5090977;28;20200;-58
2023/02/06 12:08:09;;;;;;;5.03;3.90;;;6.70;99.90;;;;;;5090767;28;20208;-58
2023/02/06 12:10:56;;;;;;;6.77;5.10;;;6.60;99.90;;;;;;5090321;28;20216;-58
2023/02/06 12:13:27;;;;;;;5.67;4.53;;;6.70;99.90;;;;;;5089618;28;20319;-58
2023/02/06 12:15:56;;;;;;;6.27;4.80;;;6.70;99.90;;;;;;5090305;28;20211;-59
2023/02/06 12:18:25;;;;;;;6.20;4.40;;;6.80;99.90;;;;;;5090378;28;20210;-60
2023/02/06 12:20:57;;;;;;;6.13;4.20;;;6.90;99.90;;;;;;5090223;28;20630;-57
2023/02/06 12:23:28;;;;;;;6.27;4.73;;;6.90;99.90;;;;;;5089753;28;20231;-58
2023/02/06 12:25:59;;;;;;;6.17;4.30;;;6.80;99.90;;;;;;5090615;28;20200;-59
2023/02/06 12:28:30;;;;;;;7.00;4.40;;;6.70;99.90;;;;;;5089307;28;20652;-57
2023/02/06 12:31:02;;;;;;;6.57;4.47;;;6.70;99.90;;;;;;5090304;28;20203;-60
2023/02/06 12:33:35;;;;;;;5.80;4.07;;;6.50;99.90;;;;;;5089547;28;20240;-56
2023/02/06 12:36:06;;;;;;;5.73;4.10;;;6.40;99.90;;;;;;5089775;28;20200;-61
2023/02/06 12:38:41;;;;;;;5.40;4.03;;;6.50;99.90;;;;;;5090326;28;20201;-58
2023/02/06 12:41:22;;;;;;;5.93;3.97;;;6.60;99.90;;;;;;5090572;28;20214;-58
2023/02/06 12:43:57;;;;;;;4.17;3.30;;;6.70;99.90;;;;;;5090125;28;20738;-59
2023/02/06 12:46:27;;;;;;;6.40;4.03;;;6.80;99.90;;;;;;5089271;28;20235;-59
2023/02/06 12:48:59;;;;;;;4.10;3.00;;;6.80;99.90;;;;;;5090061;28;20208;-56
2023/02/06 12:51:31;;;;;;;5.93;3.83;;;6.60;99.90;;;;;;5089549;28;20203;-58
2023/02/06 12:54:01;;;;;;;6.30;4.10;;;6.50;99.90;;;;;;5089159;28;20228;-58
2023/02/06 12:56:35;;;;;;;8.57;5.40;;;6.40;99.90;;;;;;5089247;28;20215;-59
2023/02/06 12:59:18;;;;;;;4.20;2.90;;;6.40;99.90;;;;;;5090100;28;20204;-61
2023/02/06 13:01:52;;;;;;;4.73;2.80;;;6.10;99.90;;;;;;5074008;28;20208;-58